Time;durP1;ratioP1;P1;durP2;ratioP2;P2;SDS_P1;SDS_P2;PMS_P1;PMS_P2;Temp;Humidity;BMP_temperature;BMP_pressure;BME280_temperature;BME280_humidity;BME280_pressure;Samples;Min_cycle;Max_cycle;Signal;HPM_P1;HPM_P2
2021/09/26 00:00:14;;;;;;;21.20;18.90;;;;;;;17.29;74.87;100813.39;117821;1182;21883;-79
2021/09/26 00:03:04;;;;;;;21.10;19.10;;;;;;;17.28;74.84;100808.95;117617;1183;21883;-78
2021/09/26 00:05:33;;;;;;;21.20;19.40;;;;;;;17.27;74.78;100806.80;117815;1182;21886;-78
2021/09/26 00:08:03;;;;;;;21.00;18.80;;;;;;;17.25;74.86;100805.57;117854;1182;21866;-78
2021/09/26 00:10:33;;;;;;;22.70;20.40;;;;;;;17.24;74.99;100803.77;117872;1182;21894;-78
2021/09/26 00:13:04;;;;;;;19.60;17.80;;;;;;;17.25;75.12;100806.88;117851;1182;21998;-78
2021/09/26 00:15:33;;;;;;;21.50;19.40;;;;;;;17.26;75.20;100810.59;117884;1182;23543;-78
2021/09/26 00:18:03;;;;;;;20.50;18.60;;;;;;;17.26;75.11;100804.35;117788;1182;21883;-78
2021/09/26 00:20:32;;;;;;;20.30;18.50;;;;;;;17.25;75.08;100808.90;117820;1179;21917;-78
2021/09/26 00:23:03;;;;;;;20.50;18.60;;;;;;;17.26;75.11;100812.97;117858;1182;22762;-77
2021/09/26 00:25:33;;;;;;;20.90;18.90;;;;;;;17.26;75.22;100809.85;117845;1182;23463;-78
2021/09/26 00:28:02;;;;;;;20.10;18.30;;;;;;;17.27;75.19;100803.52;117667;1182;22651;-77
2021/09/26 00:30:32;;;;;;;20.20;18.50;;;;;;;17.27;75.26;100804.98;117623;1182;23450;-77
2021/09/26 00:33:01;;;;;;;20.90;19.00;;;;;;;17.27;75.25;100810.70;117823;1182;21894;-77
2021/09/26 00:35:31;;;;;;;21.30;19.30;;;;;;;17.27;75.26;100807.84;117828;1182;22800;-79
2021/09/26 00:38:00;;;;;;;18.90;17.20;;;;;;;17.26;75.28;100812.15;117846;1182;22660;-78
2021/09/26 00:40:29;;;;;;;19.90;18.00;;;;;;;17.25;75.26;100813.17;117821;1182;24140;-78
2021/09/26 00:42:59;;;;;;;19.10;17.30;;;;;;;17.24;75.23;100814.41;117586;1182;22610;-79
2021/09/26 00:45:28;;;;;;;20.80;17.20;;;;;;;17.23;75.15;100810.20;117238;1187;21915;-78
2021/09/26 00:47:57;;;;;;;21.80;19.50;;;;;;;17.20;75.23;100806.91;117354;1186;21982;-78
2021/09/26 00:50:28;;;;;;;23.00;20.80;;;;;;;17.19;75.33;100805.35;117415;1186;23483;-78
2021/09/26 00:52:58;;;;;;;21.80;19.70;;;;;;;17.17;75.35;100811.46;117431;1186;22899;-77
2021/09/26 00:55:30;;;;;;;20.90;18.90;;;;;;;17.15;75.30;100813.30;117268;1186;22899;-78
2021/09/26 00:58:00;;;;;;;22.20;20.00;;;;;;;17.10;75.25;100814.67;117405;1186;22906;-78
2021/09/26 01:00:29;;;;;;;21.70;19.80;;;;;;;17.08;75.55;100816.21;117143;1186;21884;-79
2021/09/26 01:03:00;;;;;;;22.10;19.90;;;;;;;17.07;75.81;100815.61;117457;1182;22134;-78
2021/09/26 01:05:30;;;;;;;22.40;20.40;;;;;;;17.07;75.85;100817.57;117820;1182;21874;-78
2021/09/26 01:08:45;;;;;;;22.80;20.50;;;;;;;17.06;75.77;100817.98;117805;1182;21910;-79
2021/09/26 01:11:36;;;;;;;21.20;19.20;;;;;;;17.03;75.92;100818.27;117565;1184;22964;-79
2021/09/26 01:14:41;;;;;;;27.60;24.00;;;;;;;17.01;75.93;100814.28;117121;1189;21881;-78
2021/09/26 01:17:19;;;;;;;25.70;23.30;;;;;;;16.93;75.85;100813.70;117079;1188;23525;-78
2021/09/26 01:20:16;;;;;;;25.30;23.00;;;;;;;16.90;76.11;100817.05;117182;1184;22508;-78
2021/09/26 01:23:04;;;;;;;25.40;22.70;;;;;;;16.90;76.25;100814.05;117136;1188;22342;-78
2021/09/26 01:26:23;;;;;;;29.90;26.80;;;;;;;16.89;76.31;100810.64;117094;1188;22344;-78
2021/09/26 01:29:28;;;;;;;29.50;26.60;;;;;;;16.87;76.45;100812.61;117180;1181;22984;-78
2021/09/26 01:32:05;;;;;;;26.00;23.60;;;;;;;16.84;76.40;100818.38;117193;1187;21888;-78
2021/09/26 01:34:43;;;;;;;30.20;27.20;;;;;;;16.80;76.25;100820.09;117202;1186;22067;-78
2021/09/26 01:37:27;;;;;;;29.40;26.60;;;;;;;16.75;76.35;100824.52;117248;1181;22886;-78
2021/09/26 01:40:12;;;;;;;28.10;25.50;;;;;;;16.72;76.66;100825.58;117433;1186;23430;-77
2021/09/26 01:42:53;;;;;;;28.00;25.30;;;;;;;16.73;77.00;100825.51;117223;1187;22183;-79
2021/09/26 01:45:42;;;;;;;28.30;25.60;;;;;;;16.75;77.12;100823.65;117173;1186;21942;-79
2021/09/26 01:48:51;;;;;;;27.60;24.70;;;;;;;16.77;77.03;100827.33;117300;1183;22119;-79
2021/09/26 01:51:23;;;;;;;26.60;24.10;;;;;;;16.77;77.30;100829.71;117744;1183;21900;-79
2021/09/26 01:53:55;;;;;;;26.70;24.20;;;;;;;16.80;77.15;100840.10;117836;1182;23424;-79
2021/09/26 01:56:26;;;;;;;26.70;24.40;;;;;;;16.81;77.08;100842.45;117887;1182;23527;-78
2021/09/26 01:58:57;;;;;;;25.40;23.30;;;;;;;16.81;76.91;100840.08;117874;1182;23463;-78
2021/09/26 02:01:27;;;;;;;25.80;23.20;;;;;;;16.81;76.95;100838.85;117846;1182;23434;-79
2021/09/26 02:03:57;;;;;;;25.90;23.50;;;;;;;16.81;76.93;100839.09;117697;1172;22892;-79
2021/09/26 02:06:27;;;;;;;27.30;24.70;;;;;;;16.81;76.92;100839.21;117821;1182;21899;-78
2021/09/26 02:08:57;;;;;;;26.80;24.30;;;;;;;16.81;76.88;100841.38;117732;1183;23463;-78
2021/09/26 02:11:27;;;;;;;26.10;23.60;;;;;;;16.81;76.97;100847.42;117676;1183;23171;-78
2021/09/26 02:13:59;;;;;;;25.40;23.10;;;;;;;16.81;76.89;100846.11;117821;1182;21859;-78
2021/09/26 02:16:29;;;;;;;26.10;23.60;;;;;;;16.80;76.79;100841.95;117646;1182;22858;-79
2021/09/26 02:18:59;;;;;;;26.80;24.50;;;;;;;16.78;76.68;100838.90;117804;1182;21880;-79
2021/09/26 02:21:31;;;;;;;26.70;24.30;;;;;;;16.76;76.85;100845.86;117706;1182;21889;-79
2021/09/26 02:24:03;;;;;;;26.10;23.90;;;;;;;16.74;76.82;100848.17;117881;1182;23474;-78
2021/09/26 02:26:35;;;;;;;26.50;24.00;;;;;;;16.73;77.01;100852.65;117625;1182;21907;-78
2021/09/26 02:29:05;;;;;;;25.00;22.60;;;;;;;16.73;76.99;100857.26;117869;1182;21970;-78
2021/09/26 02:31:38;;;;;;;25.70;23.30;;;;;;;16.72;76.87;100860.56;117818;1183;21895;-78
2021/09/26 02:34:08;;;;;;;26.70;24.30;;;;;;;16.70;76.86;100857.96;117878;1182;23576;-78
2021/09/26 02:36:37;;;;;;;27.40;24.90;;;;;;;16.69;76.77;100859.75;117827;1182;21939;-79
2021/09/26 02:39:07;;;;;;;29.70;27.00;;;;;;;16.65;76.84;100858.09;117437;1185;23017;-78
2021/09/26 02:42:07;;;;;;;30.10;27.30;;;;;;;16.59;76.83;100857.97;117492;1173;22981;-78
2021/09/26 02:44:50;;;;;;;30.10;27.50;;;;;;;16.53;77.13;100850.95;117582;1185;21885;-78
2021/09/26 02:47:24;;;;;;;31.00;28.10;;;;;;;16.50;77.36;100847.89;117519;1185;23686;-78
2021/09/26 02:49:54;;;;;;;29.50;26.80;;;;;;;16.47;77.22;100849.59;117304;1185;21872;-79
2021/09/26 02:52:24;;;;;;;31.00;28.30;;;;;;;16.43;77.20;100856.62;117059;1189;21916;-78
2021/09/26 02:54:54;;;;;;;32.60;29.80;;;;;;;16.39;77.26;100860.82;117262;1188;23039;-78
2021/09/26 02:57:23;;;;;;;32.10;29.10;;;;;;;16.39;77.63;100865.16;117244;1184;21876;-79
2021/09/26 02:59:53;;;;;;;31.30;28.20;;;;;;;16.40;77.76;100864.14;117571;1185;22909;-78
2021/09/26 03:02:34;;;;;;;34.20;31.00;;;;;;;16.40;77.67;100863.80;117364;1185;21893;-78
2021/09/26 03:05:07;;;;;;;32.80;29.80;;;;;;;16.39;77.63;100866.44;117480;1185;21881;-78
2021/09/26 03:07:37;;;;;;;32.40;29.40;;;;;;;16.36;77.65;100870.84;117479;1185;21889;-78
2021/09/26 03:10:07;;;;;;;32.60;29.70;;;;;;;16.34;77.77;100874.27;117496;1177;21884;-78
2021/09/26 03:12:36;;;;;;;33.00;29.70;;;;;;;16.35;77.89;100876.16;117527;1182;21886;-78
2021/09/26 03:15:06;;;;;;;33.60;30.60;;;;;;;16.36;77.99;100872.61;117393;1185;23905;-78
2021/09/26 03:17:36;;;;;;;32.90;29.50;;;;;;;16.36;77.85;100873.88;117424;1183;22293;-78
2021/09/26 03:20:06;;;;;;;32.80;29.60;;;;;;;16.35;77.95;100873.42;117432;1185;23551;-78
2021/09/26 03:22:36;;;;;;;32.80;29.60;;;;;;;16.36;77.95;100873.55;117457;1185;22724;-78
2021/09/26 03:25:06;;;;;;;32.10;29.10;;;;;;;16.35;77.99;100871.98;117270;1185;21877;-79
2021/09/26 03:27:36;;;;;;;32.20;29.30;;;;;;;16.35;77.84;100871.36;117451;1185;23522;-79
2021/09/26 03:30:06;;;;;;;35.70;32.10;;;;;;;16.33;77.84;100871.39;117250;1188;23429;-79
2021/09/26 03:32:36;;;;;;;34.90;30.90;;;;;;;16.31;77.89;100868.17;117251;1188;23433;-78
2021/09/26 03:35:09;;;;;;;32.20;29.10;;;;;;;16.30;78.03;100869.34;117196;1187;22920;-78
2021/09/26 03:37:39;;;;;;;33.70;30.60;;;;;;;16.29;78.00;100868.07;117161;1185;21886;-78
2021/09/26 03:40:10;;;;;;;34.60;31.20;;;;;;;16.27;78.04;100870.04;117541;1185;23478;-78
2021/09/26 03:42:42;;;;;;;33.80;30.50;;;;;;;16.27;78.23;100866.13;117559;1185;21880;-78
2021/09/26 03:45:13;;;;;;;35.20;31.80;;;;;;;16.26;78.13;100867.31;117548;1185;21880;-78
2021/09/26 03:47:43;;;;;;;31.90;29.00;;;;;;;16.26;78.18;100868.64;117625;1182;21891;-78
2021/09/26 03:50:12;;;;;;;32.10;29.20;;;;;;;16.26;78.17;100870.68;117845;1182;21981;-78
2021/09/26 03:52:42;;;;;;;33.80;30.50;;;;;;;16.27;78.28;100871.30;117628;1181;21883;-78
2021/09/26 03:55:12;;;;;;;34.30;30.90;;;;;;;16.27;78.31;100874.42;117718;1180;22355;-78
2021/09/26 03:57:45;;;;;;;33.90;30.60;;;;;;;16.28;78.33;100874.34;117680;1182;21964;-78
2021/09/26 04:00:18;;;;;;;31.30;28.50;;;;;;;16.28;78.17;100874.02;117842;1179;21865;-79
2021/09/26 04:02:48;;;;;;;32.90;29.60;;;;;;;16.27;78.20;100874.09;117751;1183;23723;-78
2021/09/26 04:05:17;;;;;;;31.40;28.60;;;;;;;16.28;78.31;100874.91;117868;1182;23604;-78
2021/09/26 04:07:47;;;;;;;32.20;29.00;;;;;;;16.29;78.48;100880.48;117603;1182;23456;-78
2021/09/26 04:10:16;;;;;;;33.80;30.60;;;;;;;16.28;78.37;100881.27;117614;1182;23252;-79
2021/09/26 04:12:46;;;;;;;33.00;29.90;;;;;;;16.28;78.37;100878.65;117898;1182;21891;-78
2021/09/26 04:15:18;;;;;;;31.90;29.00;;;;;;;16.28;78.33;100879.34;117881;1182;23513;-79
2021/09/26 04:17:47;;;;;;;32.00;29.10;;;;;;;16.28;78.25;100884.27;117832;1182;23531;-79
2021/09/26 04:20:17;;;;;;;34.30;30.90;;;;;;;16.27;78.25;100887.30;117881;1182;23528;-79
2021/09/26 04:22:47;;;;;;;32.40;29.50;;;;;;;16.20;78.02;100882.27;117651;1182;22610;-78
2021/09/26 04:25:16;;;;;;;32.70;29.70;;;;;;;16.14;78.14;100880.22;117888;1182;23280;-78
2021/09/26 04:27:46;;;;;;;34.10;30.70;;;;;;;16.12;78.34;100878.27;117851;1182;23040;-79
2021/09/26 04:30:15;;;;;;;33.60;30.60;;;;;;;16.12;78.49;100878.18;117665;1182;21932;-78
2021/09/26 04:32:45;;;;;;;36.00;32.50;;;;;;;16.11;78.55;100881.34;117677;1179;22901;-77
2021/09/26 04:35:14;;;;;;;31.60;28.70;;;;;;;16.09;78.51;100879.62;117891;1182;23552;-78
2021/09/26 04:37:44;;;;;;;33.50;30.40;;;;;;;16.04;78.49;100881.42;117529;1184;22623;-78
2021/09/26 04:40:20;;;;;;;31.10;28.30;;;;;;;15.98;78.51;100879.91;117551;1184;22109;-79
2021/09/26 04:42:52;;;;;;;34.70;31.40;;;;;;;15.91;78.64;100881.09;117185;1188;22901;-77
2021/09/26 04:45:22;;;;;;;34.20;30.90;;;;;;;15.84;78.82;100881.92;117178;1187;23464;-77
2021/09/26 04:47:54;;;;;;;42.00;31.70;;;;;;;15.82;79.02;100880.48;117204;1187;24000;-77
2021/09/26 04:50:37;;;;;;;34.10;30.80;;;;;;;15.80;79.26;100879.80;117250;1187;23423;-78
2021/09/26 04:53:07;;;;;;;35.10;31.50;;;;;;;15.78;79.44;100879.45;117179;1187;21894;-77
2021/09/26 04:55:41;;;;;;;34.80;31.40;;;;;;;15.79;79.65;100878.02;117267;1185;23430;-79
2021/09/26 04:58:10;;;;;;;37.50;33.90;;;;;;;15.77;79.58;100882.84;117433;1185;22220;-77
2021/09/26 05:00:40;;;;;;;36.60;33.10;;;;;;;15.75;79.68;100886.99;117683;1182;21874;-79
2021/09/26 05:03:09;;;;;;;36.20;32.70;;;;;;;15.77;79.80;100885.01;117844;1170;22341;-77
2021/09/26 05:05:39;;;;;;;37.10;33.30;;;;;;;15.79;79.88;100884.88;117861;1182;23525;-79
2021/09/26 05:08:09;;;;;;;40.30;36.30;;;;;;;15.81;79.97;100881.98;117891;1182;23659;-78
2021/09/26 05:10:43;;;;;;;40.40;36.50;;;;;;;15.82;79.84;100879.17;117639;1182;23518;-78
2021/09/26 05:13:13;;;;;;;41.60;37.40;;;;;;;15.83;79.78;100880.36;117438;1181;21909;-78
2021/09/26 05:15:42;;;;;;;40.40;36.50;;;;;;;15.83;79.94;100884.24;117519;1185;21918;-78
2021/09/26 05:18:12;;;;;;;37.50;34.00;;;;;;;15.84;79.94;100889.95;117445;1180;21979;-78
2021/09/26 05:20:45;;;;;;;38.00;34.40;;;;;;;15.83;79.89;100894.83;117552;1185;22898;-78
2021/09/26 05:23:15;;;;;;;36.40;32.80;;;;;;;15.86;80.14;100892.48;117472;1184;21890;-77
2021/09/26 05:25:45;;;;;;;36.00;32.40;;;;;;;15.93;80.23;100895.80;117719;1185;21872;-81
2021/09/26 05:28:15;;;;;;;35.20;31.80;;;;;;;15.99;80.15;100894.34;117647;1185;22625;-81
2021/09/26 05:30:50;;;;;;;35.50;31.80;;;;;;;16.04;80.04;100894.39;117415;1179;21889;-80
2021/09/26 05:33:25;;;;;;;33.00;30.00;;;;;;;16.09;80.00;100898.58;117811;1182;22262;-80
2021/09/26 05:36:01;;;;;;;33.80;30.60;;;;;;;16.13;79.93;100902.02;117792;1182;21859;-80
2021/09/26 05:38:31;;;;;;;32.00;28.90;;;;;;;16.15;79.67;100905.48;117435;1183;21885;-79
2021/09/26 05:41:04;;;;;;;32.90;29.60;;;;;;;16.16;79.55;100902.13;117072;1188;21907;-79
2021/09/26 05:43:36;;;;;;;31.30;28.60;;;;;;;16.19;79.66;100902.89;116971;1188;24190;-79
2021/09/26 05:46:30;;;;;;;;;;;;;;;16.24;79.72;100902.80;117150;1188;22238;-85
2021/09/26 05:49:00;;;;;;;32.10;29.10;;;;;;;16.17;79.77;100899.85;117114;1188;21888;-79
2021/09/26 05:51:29;;;;;;;32.50;29.50;;;;;;;16.18;79.85;100903.64;117060;1188;21974;-79
2021/09/26 05:53:59;;;;;;;31.80;28.50;;;;;;;16.22;79.68;100902.96;117091;1185;22707;-79
2021/09/26 05:56:31;;;;;;;35.80;28.30;;;;;;;16.25;79.69;100903.69;117077;1188;21904;-79
2021/09/26 05:59:01;;;;;;;30.80;28.00;;;;;;;16.29;79.73;100902.65;117015;1188;21903;-79
2021/09/26 06:01:30;;;;;;;32.50;29.40;;;;;;;16.31;79.62;100904.42;116933;1188;24246;-79
2021/09/26 06:04:00;;;;;;;33.10;30.20;;;;;;;16.35;79.69;100912.35;117007;1186;21889;-79
2021/09/26 06:06:29;;;;;;;30.80;28.00;;;;;;;16.37;79.62;100911.80;117465;1183;21899;-79
2021/09/26 06:08:58;;;;;;;32.90;30.00;;;;;;;16.40;79.52;100914.92;117693;1182;21880;-79
2021/09/26 06:11:30;;;;;;;33.30;30.40;;;;;;;16.42;79.46;100919.51;117646;1182;21880;-79
2021/09/26 06:14:10;;;;;;;;;;;;;;;16.45;79.49;100922.86;117927;1182;21861;-79
2021/09/26 06:16:40;;;;;;;33.00;29.70;;;;;;;16.45;80.01;100926.09;117764;1182;23438;-82
2021/09/26 06:19:10;;;;;;;31.20;28.50;;;;;;;16.53;80.05;100929.05;117693;1183;22612;-82
2021/09/26 06:21:43;;;;;;;31.60;28.80;;;;;;;16.63;79.81;100931.60;117938;1180;21892;-84
2021/09/26 06:24:14;;;;;;;30.80;28.10;;;;;;;16.73;79.60;100938.89;117382;1184;22292;-82
2021/09/26 06:26:43;;;;;;;30.70;28.10;;;;;;;16.82;79.38;100942.38;117472;1184;21887;-81
2021/09/26 06:29:13;;;;;;;30.00;27.30;;;;;;;16.89;79.19;100944.85;117338;1187;22903;-81
2021/09/26 06:31:42;;;;;;;30.90;28.10;;;;;;;16.97;78.99;100946.25;117482;1185;21910;-82
2021/09/26 06:34:11;;;;;;;28.80;26.40;;;;;;;17.02;78.66;100944.95;117328;1187;21885;-81
2021/09/26 06:36:42;;;;;;;29.60;26.80;;;;;;;17.07;78.58;100945.29;117143;1189;22741;-81
2021/09/26 06:39:16;;;;;;;30.50;27.60;;;;;;;17.14;78.63;100946.66;116996;1190;21895;-82
2021/09/26 06:41:45;;;;;;;29.20;26.50;;;;;;;17.23;78.49;100951.56;117046;1190;22322;-82
2021/09/26 06:44:15;;;;;;;30.20;27.40;;;;;;;17.32;78.36;100952.11;116837;1192;24235;-81
2021/09/26 06:46:44;;;;;;;32.20;29.40;;;;;;;17.37;77.84;100950.73;116755;1192;22910;-82
2021/09/26 06:49:14;;;;;;;28.40;26.10;;;;;;;17.43;77.71;100949.80;116975;1190;21911;-82
2021/09/26 06:51:43;;;;;;;28.50;25.90;;;;;;;17.47;77.43;100952.70;117085;1187;21891;-82
2021/09/26 06:54:13;;;;;;;28.70;26.20;;;;;;;17.51;77.19;100962.30;117177;1186;21890;-82
2021/09/26 06:56:43;;;;;;;29.00;26.60;;;;;;;17.54;76.93;100962.52;116888;1187;23473;-83
2021/09/26 06:59:12;;;;;;;29.50;26.70;;;;;;;17.61;77.14;100962.35;117125;1188;23528;-82
2021/09/26 07:01:41;;;;;;;32.40;29.40;;;;;;;17.70;77.10;100962.13;117123;1188;23449;-82
2021/09/26 07:04:11;;;;;;;33.40;30.20;;;;;;;17.77;76.86;100963.30;117100;1187;21874;-83
2021/09/26 07:06:41;;;;;;;28.40;26.00;;;;;;;17.85;76.73;100964.73;117184;1188;21915;-82
2021/09/26 07:09:10;;;;;;;28.60;26.10;;;;;;;17.93;76.46;100969.48;117416;1186;22880;-82
2021/09/26 07:11:40;;;;;;;27.30;24.70;;;;;;;17.98;76.11;100970.44;117468;1186;22739;-84
2021/09/26 07:14:13;;;;;;;28.30;25.90;;;;;;;18.02;75.74;100973.66;117229;1189;22925;-83
2021/09/26 07:16:42;;;;;;;27.80;25.50;;;;;;;18.04;75.52;100974.36;116853;1193;21983;-80
2021/09/26 07:19:15;;;;;;;28.50;25.90;;;;;;;18.05;75.29;100971.11;116605;1192;22768;-82
2021/09/26 07:22:04;;;;;;;28.20;25.60;;;;;;;18.08;75.44;100971.73;117288;1188;22838;-82
2021/09/26 07:24:44;;;;;;;31.00;28.10;;;;;;;18.14;75.42;100973.32;117245;1187;23474;-80
2021/09/26 07:27:17;;;;;;;28.70;26.20;;;;;;;18.23;75.38;100978.03;117469;1188;21900;-82
2021/09/26 07:29:48;;;;;;;28.40;25.80;;;;;;;18.33;75.34;100976.11;116858;1191;21914;-83
2021/09/26 07:32:17;;;;;;;25.70;23.40;;;;;;;18.45;75.26;100977.73;116937;1189;23436;-83
2021/09/26 07:34:48;;;;;;;25.90;23.50;;;;;;;18.58;74.93;100981.23;117252;1186;23430;-82
2021/09/26 07:37:18;;;;;;;25.50;23.20;;;;;;;18.71;74.92;100986.25;117396;1186;23527;-82
2021/09/26 07:39:47;;;;;;;21.80;19.90;;;;;;;18.89;74.50;100990.13;117416;1186;21902;-82
2021/09/26 07:42:18;;;;;;;25.50;23.10;;;;;;;18.99;73.71;100991.81;117746;1186;21894;-84
2021/09/26 07:44:47;;;;;;;23.60;21.30;;;;;;;19.15;73.88;100993.23;117506;1186;23496;-82
2021/09/26 07:47:17;;;;;;;23.30;21.10;;;;;;;19.34;73.58;100990.92;117409;1186;21877;-83
2021/09/26 07:49:48;;;;;;;28.20;21.10;;;;;;;19.51;72.73;100991.66;117436;1184;23540;-79
2021/09/26 07:52:17;;;;;;;21.80;18.70;;;;;;;19.62;71.88;100995.11;117220;1186;23617;-77
2021/09/26 07:54:47;;;;;;;21.90;19.80;;;;;;;19.70;71.30;100994.80;117536;1182;21872;-79
2021/09/26 07:57:19;;;;;;;22.90;20.30;;;;;;;19.79;71.11;100992.95;117859;1182;22911;-78
2021/09/26 07:59:52;;;;;;;19.50;17.60;;;;;;;19.92;70.75;100992.48;117699;1180;21934;-77
2021/09/26 08:02:21;;;;;;;23.20;20.80;;;;;;;20.06;70.67;100988.98;117690;1176;21855;-78
2021/09/26 08:04:51;;;;;;;18.70;16.30;;;;;;;20.26;70.39;100993.33;117643;1183;21858;-77
2021/09/26 08:07:20;;;;;;;15.20;13.80;;;;;;;20.38;69.25;100994.52;117702;1182;21887;-78
2021/09/26 08:09:50;;;;;;;17.50;15.70;;;;;;;20.42;68.39;100994.16;117766;1183;21898;-78
2021/09/26 08:12:20;;;;;;;19.00;17.00;;;;;;;20.46;68.15;100999.02;118446;1182;21916;-76
2021/09/26 08:14:49;;;;;;;15.80;14.50;;;;;;;20.52;67.92;101002.96;117871;1183;23671;-78
2021/09/26 08:17:19;;;;;;;15.00;13.60;;;;;;;20.62;67.92;101001.11;117886;1183;24478;-78
2021/09/26 08:19:48;;;;;;;16.00;14.40;;;;;;;20.75;67.52;101002.59;117954;1180;21891;-77
2021/09/26 08:22:18;;;;;;;15.60;14.00;;;;;;;20.80;66.56;101000.85;117659;1183;21870;-78
2021/09/26 08:24:47;;;;;;;15.00;13.60;;;;;;;20.81;66.07;101000.75;118021;1182;23520;-78
2021/09/26 08:27:18;;;;;;;15.30;13.80;;;;;;;20.84;65.95;100996.02;117242;1186;23533;-77
2021/09/26 08:29:47;;;;;;;14.80;13.10;;;;;;;20.84;65.48;100998.54;117567;1186;21968;-78
2021/09/26 08:32:17;;;;;;;16.50;15.00;;;;;;;20.84;65.47;100999.23;117515;1186;21926;-77
2021/09/26 08:34:46;;;;;;;11.80;10.80;;;;;;;20.91;65.46;101003.89;117451;1186;21887;-77
2021/09/26 08:37:15;;;;;;;11.40;10.30;;;;;;;20.96;65.03;101006.80;117509;1186;23535;-78
2021/09/26 08:39:45;;;;;;;10.40;9.20;;;;;;;21.04;64.84;101005.92;117522;1186;21891;-78
2021/09/26 08:42:16;;;;;;;9.90;8.90;;;;;;;21.19;64.65;101004.83;117482;1186;24287;-78
2021/09/26 08:44:46;;;;;;;9.10;7.60;;;;;;;21.48;65.04;101005.05;117428;1182;21962;-77
2021/09/26 08:47:17;;;;;;;7.30;6.60;;;;;;;21.90;64.10;101006.17;117400;1186;22434;-77
2021/09/26 08:49:47;;;;;;;6.10;5.50;;;;;;;22.25;62.38;101009.83;117314;1186;21853;-76
2021/09/26 08:52:21;;;;;;;6.50;5.80;;;;;;;22.53;60.26;101010.06;117457;1183;21949;-78
2021/09/26 08:54:50;;;;;;;5.80;5.10;;;;;;;22.66;58.36;101014.13;117995;1182;21883;-78
2021/09/26 08:57:22;;;;;;;6.00;5.40;;;;;;;22.61;57.09;101012.14;117738;1183;22916;-78
2021/09/26 08:59:51;;;;;;;;;;;;;;;22.55;57.16;101010.45;117687;1182;23657;-78
2021/09/26 09:02:21;;;;;;;5.80;4.70;;;;;;;22.42;56.74;101005.73;117886;1182;22915;-77
2021/09/26 09:04:52;;;;;;;11.00;9.20;;;;;;;22.32;56.65;101006.32;117792;1182;21970;-78
2021/09/26 09:07:21;;;;;;;6.00;5.10;;;;;;;22.43;57.47;101005.25;117815;1182;21881;-78
2021/09/26 09:09:56;;;;;;;6.00;4.50;;;;;;;22.70;56.92;101005.86;117644;1182;21985;-77
2021/09/26 09:12:27;;;;;;;4.50;3.80;;;;;;;22.82;55.08;101007.45;117849;1178;22612;-79
2021/09/26 09:14:57;;;;;;;6.80;4.20;;;;;;;22.94;54.73;101005.23;117649;1182;22831;-79
2021/09/26 09:17:40;;;;;;;6.40;4.90;;;;;;;23.11;54.07;101005.56;117862;1182;23453;-78
2021/09/26 09:20:25;;;;;;;4.50;4.00;;;;;;;23.30;53.98;101004.80;117627;1170;21869;-78
2021/09/26 09:23:09;;;;;;;6.30;5.80;;;;;;;23.45;52.64;101003.35;117834;1182;21875;-78
2021/09/26 09:25:48;;;;;;;4.70;3.30;;;;;;;23.38;51.66;101004.65;117710;1182;22423;-78
2021/09/26 09:28:26;;;;;;;6.20;5.60;;;;;;;23.21;51.11;101003.64;117658;1182;23448;-75
2021/09/26 09:31:04;;;;;;;5.50;4.10;;;;;;;23.19;51.60;101005.71;117835;1179;22915;-78
2021/09/26 09:33:39;;;;;;;6.50;4.50;;;;;;;23.23;51.03;101003.23;117823;1182;22817;-78
2021/09/26 09:36:29;;;;;;;3.70;3.30;;;;;;;23.20;50.44;101001.25;117837;1182;22828;-78
2021/09/26 09:39:06;;;;;;;3.60;2.40;;;;;;;23.21;50.28;100998.62;117902;1182;23606;-77
2021/09/26 09:41:47;;;;;;;3.80;2.70;;;;;;;23.26;49.98;100999.86;117839;1182;23659;-78
2021/09/26 09:44:16;;;;;;;4.10;3.00;;;;;;;23.35;49.35;101001.67;117851;1182;21878;-77
2021/09/26 09:46:48;;;;;;;10.70;9.60;;;;;;;23.41;48.77;101002.84;117837;1182;21892;-80
2021/09/26 09:49:25;;;;;;;4.30;3.90;;;;;;;23.49;48.49;101002.45;117584;1182;21888;-79
2021/09/26 09:51:59;;;;;;;3.80;3.40;;;;;;;23.44;47.95;101000.20;117878;1182;23645;-81
2021/09/26 09:54:40;;;;;;;6.60;5.70;;;;;;;23.36;47.94;100999.48;117608;1182;22883;-78
2021/09/26 09:57:21;;;;;;;6.00;4.40;;;;;;;23.33;48.25;101003.84;117223;1178;21873;-78
2021/09/26 09:59:51;;;;;;;5.10;3.50;;;;;;;23.29;48.22;101003.73;117216;1186;24417;-78
2021/09/26 10:02:33;;;;;;;4.10;3.70;;;;;;;23.27;48.71;100997.56;117199;1187;21875;-78
2021/09/26 10:05:03;;;;;;;3.80;3.40;;;;;;;23.31;48.89;100997.86;117324;1186;21882;-78
2021/09/26 10:07:32;;;;;;;3.90;3.40;;;;;;;23.34;48.81;100999.05;117229;1186;22048;-78
2021/09/26 10:10:02;;;;;;;5.80;3.30;;;;;;;23.29;48.55;100999.60;117261;1186;22902;-77
2021/09/26 10:12:32;;;;;;;3.90;3.20;;;;;;;23.26;48.72;100997.12;117261;1186;21861;-78
2021/09/26 10:15:04;;;;;;;4.10;2.90;;;;;;;23.26;48.38;100996.90;117286;1184;22833;-78
2021/09/26 10:17:34;;;;;;;5.40;2.80;;;;;;;23.28;47.98;100993.97;117665;1183;22898;-78
2021/09/26 10:20:05;;;;;;;4.70;2.90;;;;;;;23.23;47.50;100998.23;117588;1183;22767;-77
2021/09/26 10:22:38;;;;;;;3.40;2.60;;;;;;;23.13;47.46;100994.46;117623;1183;21934;-78
2021/09/26 10:25:08;;;;;;;4.50;3.10;;;;;;;23.09;47.58;100991.45;117818;1171;21870;-79
2021/09/26 10:27:38;;;;;;;3.90;2.60;;;;;;;23.02;47.42;100993.13;117631;1183;22986;-78
2021/09/26 10:30:11;;;;;;;4.60;2.50;;;;;;;22.93;47.66;100993.23;117804;1183;21883;-79
2021/09/26 10:32:41;;;;;;;3.80;3.10;;;;;;;22.83;47.76;100995.84;117462;1185;23521;-78
2021/09/26 10:35:12;;;;;;;3.90;2.70;;;;;;;22.83;48.11;100995.89;117237;1185;22160;-77
2021/09/26 10:37:42;;;;;;;3.30;2.90;;;;;;;22.90;48.30;100994.77;117453;1185;22842;-77
2021/09/26 10:40:15;;;;;;;3.50;2.80;;;;;;;22.98;48.17;100991.91;117510;1185;21887;-78
2021/09/26 10:42:45;;;;;;;5.30;3.70;;;;;;;22.98;47.85;100990.58;117322;1185;23566;-78
2021/09/26 10:45:25;;;;;;;3.70;2.90;;;;;;;23.03;48.18;100989.05;117497;1185;21880;-78
2021/09/26 10:47:56;;;;;;;3.20;2.50;;;;;;;23.06;47.74;100988.37;117490;1185;21934;-77
2021/09/26 10:50:35;;;;;;;2.40;2.20;;;;;;;23.05;47.23;100991.04;117307;1182;21899;-78
2021/09/26 10:53:14;;;;;;;2.70;2.50;;;;;;;23.04;47.19;100989.98;117698;1182;22357;-77
2021/09/26 10:55:44;;;;;;;6.50;3.30;;;;;;;23.07;47.36;100986.40;117911;1182;21896;-82
2021/09/26 10:58:17;;;;;;;4.90;3.10;;;;;;;23.14;47.41;100988.22;117674;1182;21873;-81
2021/09/26 11:01:03;;;;;;;4.60;3.80;;;;;;;23.21;47.50;100986.93;117596;1183;23471;-80
2021/09/26 11:03:42;;;;;;;3.40;2.20;;;;;;;23.31;47.35;100987.36;117929;1182;22706;-81
2021/09/26 11:06:32;;;;;;;4.10;2.30;;;;;;;23.35;46.41;100987.62;117217;1186;21941;-81
2021/09/26 11:09:08;;;;;;;2.80;1.60;;;;;;;23.30;45.50;100983.98;117310;1186;22925;-80
2021/09/26 11:11:57;;;;;;;2.40;2.10;;;;;;;23.22;44.94;100976.34;117136;1186;22013;-81
2021/09/26 11:14:28;;;;;;;2.60;2.40;;;;;;;23.22;45.11;100972.19;117256;1181;22656;-81
2021/09/26 11:17:00;;;;;;;3.80;2.70;;;;;;;23.26;45.10;100975.92;117387;1186;23476;-81
2021/09/26 11:19:29;;;;;;;4.50;3.50;;;;;;;23.28;45.14;100974.07;117273;1186;21896;-81
2021/09/26 11:22:06;;;;;;;5.20;3.00;;;;;;;23.34;45.32;100974.95;117190;1186;21874;-81
2021/09/26 11:24:42;;;;;;;3.00;2.00;;;;;;;23.37;45.01;100977.14;117394;1183;22902;-82
2021/09/26 11:27:17;;;;;;;3.70;2.20;;;;;;;23.30;44.37;100979.09;118057;1182;22096;-83
2021/09/26 11:29:48;;;;;;;3.20;2.30;;;;;;;23.19;44.62;100976.98;117909;1182;21903;-83
2021/09/26 11:32:55;;;;;;;2.30;1.80;;;;;;;23.15;44.80;100974.29;117585;1186;24431;-83